• Join FlightAware (Why Join?)
  • Login
  • US Flag 
09:18AM EDT


 

Airport Tracker/Info


-or-


 

Live Flight TrackerFlight Track Log ✈ XOJ552 ✈ 25-Aug-2013 ✈ KBFI - KTEB

Flight Track Log - Related Links

Times and Time Zones

All times are in EDT time to prevent confusion due to time zone crossing. See the XOJ552 flight status page for this flight to view local times or setup timezone preferences in your user account.

Time Position Orientation Groundspeed Altitude Reporting Facility
EDT Latitude Longitude Course Direction KTS MPH feet Rate Location/Type
12:28PM 47.5481 -122.3169 318° Northwest 178 205 900  Level Seattle Center
12:29PM 47.6114 -122.4003 318° Northwest 246 283 4,000 2,340 Climbing Seattle Center
12:30PM 47.6322 -122.4744 293° West 272 313 6,000 2,340 Climbing Seattle Center
12:31PM 47.7089 -122.4608 North 292 336 8,700 2,160 Climbing Seattle Center
12:32PM 47.6978 -122.3528 99° East 294 338 10,800 2,880 Climbing Seattle Center
12:33PM 47.6422 -122.2261 123° Southeast 327 376 14,600 3,360 Climbing Seattle Center
12:34PM 47.5972 -122.1206 122° Southeast 343 395 17,700 3,060 Climbing Seattle Center
12:35PM 47.5475 -121.9958 121° Southeast 354 407 20,900 3,120 Climbing Seattle Center
12:36PM 47.5444 -121.8406 92° East 379 436 24,100 3,060 Climbing Seattle Center
12:37PM 47.5464 -121.6497 89° East 390 449 27,200 2,640 Climbing Seattle Center
12:38PM 47.5483 -121.4889 89° East 396 456 29,600 2,040 Climbing Seattle Center
12:39PM 47.5506 -121.3225 89° East 406 467 31,400 1,560 Climbing Seattle Center
12:40PM 47.5508 -121.1500 90° East 419 482 32,800 1,440 Climbing Seattle Center
12:41PM 47.5528 -120.9700 89° East 435 501 34,400 1,380 Climbing Seattle Center
12:42PM 47.5544 -120.7850 89° East 446 513 35,700 1,080 Climbing Seattle Center
12:43PM 47.5553 -120.5956 90° East 459 528 36,600 1,020 Climbing Seattle Center
12:44PM 47.5544 -120.4031 90° East 467 537 37,800 960 Climbing Seattle Center
12:45PM 47.5547 -120.2083 90° East 473 544 38,600 1,020 Climbing Seattle Center
12:46PM 47.5542 -119.9739 90° East 476 548 39,900 1,140 Climbing Seattle Center
12:47PM 47.5544 -119.7817 90° East 470 541 41,000 540 Climbing Seattle Center
12:48PM 47.5514 -119.5867 91° East 474 545 41,000  Level Seattle Center
12:49PM 47.5511 -119.3858 90° East 487 560 41,000  Level Seattle Center
12:50PM 47.5494 -119.1847 91° East 490 564 41,000  Level Seattle Center
12:51PM 47.5483 -118.9869 90° East 483 556 41,000  Level Seattle Center
12:52PM 47.5450 -118.7917 91° East 479 551 41,000  Level Seattle Center
12:53PM 47.5433 -118.5969 91° East 475 547 41,000  Level Seattle Center
12:54PM 47.5400 -118.3997 91° East 480 552 41,000  Level Seattle Center
12:55PM 47.5367 -118.2011 91° East 484 557 41,000  Level Seattle Center
12:56PM 47.5331 -117.9997 91° East 489 563 41,000  Level Seattle Center
12:57PM 47.5275 -117.7578 92° East 494 568 41,000  Level Seattle Center
12:58PM 47.5236 -117.5572 92° East 493 567 41,000  Level Seattle Center
01:00PM 47.5186 -117.3564 92° East 493 567 41,000  Level Seattle Center
01:01PM 47.5131 -117.1639 92° East 494 568 41,000  Level Seattle Center
01:02PM 47.5064 -116.9200 92° East 510 587 41,000  Level Seattle Center
01:03PM 47.5014 -116.7208 92° East 499 574 41,000  Level Seattle Center
01:04PM 47.4944 -116.5181 93° East 498 573 41,000  Level Seattle Center
01:05PM 47.4875 -116.3164 93° East 495 570 41,000 -60 Level Seattle Center
01:06PM 47.4803 -116.1133 93° East 496 571 40,900  Descending Seattle Center
01:07PM 47.4725 -115.9117 93° East 495 570 41,000  Climbing Seattle Center
01:08PM 47.4650 -115.7058 93° East 493 567 41,000  Level Seattle Center
01:09PM 47.4575 -115.5056 93° East 492 566 41,000  Level Seattle Center
01:10PM 47.4497 -115.3056 93° East 491 565 41,000  Level Seattle Center
01:11PM 47.4392 -115.1047 94° East 493 567 41,000  Level Seattle Center
01:12PM 47.4314 -114.9039 93° East 494 568 41,000  Level Seattle Center
01:13PM 47.4203 -114.6639 94° East 494 568 41,000  Level Seattle Center
01:14PM 47.4122 -114.5025 94° East 494 568 41,000  Level Salt Lake Center
01:15PM 47.4000 -114.2639 94° East 492 566 41,000 -60 Level Salt Lake Center
01:16PM 47.3897 -114.0681 94° East 486 559 40,900  Descending Salt Lake Center
01:17PM 47.3786 -113.8714 95° East 485 558 41,000  Climbing Salt Lake Center
01:18PM 47.3675 -113.6736 95° East 487 560 40,900  Descending Salt Lake Center
01:19PM 47.3558 -113.4783 95° East 483 556 41,000  Climbing Salt Lake Center
01:20PM 47.3411 -113.2450 95° East 481 554 41,000  Level Salt Lake Center
01:21PM 47.3292 -113.0506 95° East 479 551 41,000 -60 Level Salt Lake Center
01:22PM 47.3178 -112.8703 95° East 482 555 40,900  Descending Salt Lake Center
01:23PM 47.3033 -112.6364 95° East 480 552 41,000  Climbing Salt Lake Center
01:24PM 47.2900 -112.4439 96° East 477 549 41,000  Level Salt Lake Center
01:25PM 47.2764 -112.2511 96° East 477 549 41,000 -60 Level Salt Lake Center
01:26PM 47.2619 -112.0586 96° East 476 548 40,900 -60 Descending Salt Lake Center
01:27PM 47.2489 -111.8644 96° East 480 552 40,900  Level Salt Lake Center
01:28PM 47.2344 -111.6722 96° East 478 550 41,000 180 Climbing Salt Lake Center
01:30PM 47.2155 -111.4253 96° East  Level FlightAware Approximate
01:30PM 47.2011 -111.2483 96° East 481 554 41,500  Level Salt Lake Center
01:31PM 47.1869 -111.0519 96° East 485 558 42,000 480 Climbing Salt Lake Center
01:32PM 47.1711 -110.8558 97° East 487 560 42,500 480 Climbing Salt Lake Center
01:33PM 47.1511 -110.6186 97° East 491 565 43,100 480 Climbing Salt Lake Center
01:34PM 47.1333 -110.4225 98° East 490 564 43,600 480 Climbing Salt Lake Center
01:35PM 47.1161 -110.2283 97° East 485 558 44,100 480 Climbing Salt Lake Center
01:36PM 47.0997 -110.0339 97° East 484 557 44,600 420 Climbing Salt Lake Center
01:37PM 47.0825 -109.8411 97° East 481 554 45,000 180 Climbing Salt Lake Center
01:39PM 47.0661 -109.6469 97° East 482 555 45,000  Level Salt Lake Center
01:40PM 47.0442 -109.4144 98° East 483 556 45,000  Level Salt Lake Center
01:41PM 47.0256 -109.2203 98° East 483 556 45,000  Level Salt Lake Center
01:42PM 47.0044 -109.0192 99° East 482 555 45,000  Level Salt Lake Center
01:43PM 46.9850 -108.8283 98° East 477 549 45,000  Level Salt Lake Center
01:44PM 46.9658 -108.6328 98° East 484 557 45,000  Level Salt Lake Center
01:45PM 46.9464 -108.4403 98° East 480 552 45,000  Level Salt Lake Center
01:46PM 46.9211 -108.2081 99° East 482 555 45,000  Level Salt Lake Center
01:47PM 46.9011 -108.0122 98° East 486 559 45,000  Level Salt Lake Center
01:48PM 46.8794 -107.8189 99° East 485 558 45,000  Level Salt Lake Center
01:49PM 46.8583 -107.6244 99° East 484 557 45,000  Level Salt Lake Center
01:50PM 46.8361 -107.4300 99° East 486 559 45,000  Level Salt Lake Center
01:51PM 46.8136 -107.2347 99° East 488 562 45,000  Level Salt Lake Center
01:52PM 46.7917 -107.0400 99° East 487 560 45,000  Level Salt Lake Center
01:53PM 46.7628 -106.8047 100° East 491 565 45,000  Level Salt Lake Center
01:54PM 46.7394 -106.6089 100° East 491 565 45,000  Level Salt Lake Center
01:55PM 46.7150 -106.4133 100° East 492 566 45,000  Level Salt Lake Center
01:56PM 46.6900 -106.2192 101° East 490 564 45,000  Level Salt Lake Center
01:57PM 46.6658 -106.0242 100° East 489 563 45,000  Level Salt Lake Center
01:58PM 46.6408 -105.8303 101° East 489 563 45,000  Level Salt Lake Center
01:59PM 46.6103 -105.5972 101° East 489 563 45,000  Level Salt Lake Center
02:00PM 46.5842 -105.4025 101° East 491 565 45,000  Level Salt Lake Center
02:01PM 46.5575 -105.2061 101° East 493 567 45,000  Level Salt Lake Center
02:02PM 46.5314 -105.0108 101° East 494 568 45,000  Level Salt Lake Center
02:03PM 46.5050 -104.8144 101° East 496 571 45,000  Level Salt Lake Center
02:04PM 46.4772 -104.6094 101° East 497 572 45,000  Level Salt Lake Center
02:05PM 46.4492 -104.4125 102° East 500 575 45,000  Level Salt Lake Center
02:06PM 46.4211 -104.2169 102° East 500 575 45,000  Level Salt Lake Center
02:07PM 46.3878 -103.9817 102° East 499 574 45,000  Level Salt Lake Center
02:09PM 46.3592 -103.7850 102° East 502 578 45,000  Level Salt Lake Center
02:10PM 46.3297 -103.5872 102° East 504 580 45,000  Level Salt Lake Center
02:11PM 46.3014 -103.3869 102° East 506 582 45,000  Level Salt Lake Center
02:12PM 46.2717 -103.1908 102° East 506 582 45,000  Level Salt Lake Center
02:13PM 46.2356 -102.9558 102° East 505 581 45,000  Level Salt Lake Center
02:14PM 46.2031 -102.7669 104° East 504 580 45,000  Level Minneapolis Center
02:15PM 46.1728 -102.5706 102° East 504 580 45,000  Level Minneapolis Center
02:16PM 46.1414 -102.3733 103° East 505 581 45,000  Level Minneapolis Center
02:17PM 46.1036 -102.1425 103° East 507 583 45,000  Level Minneapolis Center
02:18PM 46.0703 -101.9461 104° East 506 582 45,000  Level Minneapolis Center
02:19PM 46.0375 -101.7486 103° East 505 581 45,000  Level Minneapolis Center
02:20PM 46.0042 -101.5522 104° East 505 581 45,000  Level Minneapolis Center
02:21PM 45.9717 -101.3544 103° East 506 582 45,000  Level Minneapolis Center
02:22PM 45.9331 -101.1144 103° East 509 586 45,000  Level Minneapolis Center
02:23PM 45.8986 -100.9189 104° East 508 585 45,000  Level Minneapolis Center
02:24PM 45.8639 -100.7228 104° East 505 581 45,000  Level Minneapolis Center
02:25PM 45.8292 -100.5278 104° East 504 580 45,000  Level Minneapolis Center
02:26PM 45.7933 -100.3328 105° East 504 580 45,000  Level Minneapolis Center
02:27PM 45.7572 -100.1383 105° East 503 579 45,000  Level Minneapolis Center
02:28PM 45.7222 -99.9444 104° East 503 579 45,000  Level Minneapolis Center
02:29PM 45.6789 -99.7131 105° East 500 575 45,000  Level Minneapolis Center
02:30PM 45.6428 -99.5169 105° East 503 579 45,000  Level Minneapolis Center
02:31PM 45.6058 -99.3231 105° East 504 580 45,000  Level Minneapolis Center
02:32PM 45.5692 -99.1303 105° East 503 579 45,000  Level Minneapolis Center
02:33PM 45.5322 -98.9400 105° East 499 574 45,000  Level Minneapolis Center
02:34PM 45.4939 -98.7494 106° East 499 574 45,000  Level Minneapolis Center
02:35PM 45.4569 -98.5592 105° East 498 573 45,000  Level Minneapolis Center
02:36PM 45.4156 -98.3289 104° East 499 574 45,000  Level Minneapolis Center
02:38PM 45.4122 -98.1314 91° East 498 573 45,000  Level Minneapolis Center
02:39PM 45.4033 -97.9244 93° East 499 574 45,000  Level Minneapolis Center
02:40PM 45.3958 -97.7300 93° East 495 570 45,000  Level Minneapolis Center
02:41PM 45.3881 -97.5353 93° East 493 567 45,000  Level Minneapolis Center
02:42PM 45.3800 -97.3408 93° East 492 566 45,000  Level Minneapolis Center
02:43PM 45.3714 -97.1469 94° East 492 566 45,000  Level Minneapolis Center
02:44PM 45.3633 -96.9519 93° East 494 568 45,000  Level Minneapolis Center
02:45PM 45.3528 -96.7214 94° East 489 563 45,000  Level Minneapolis Center
02:46PM 45.3433 -96.5244 94° East 496 571 45,000  Level Minneapolis Center
02:47PM 45.3328 -96.3328 94° East 489 563 45,000  Level Minneapolis Center
02:48PM 45.3231 -96.1411 94° East 486 559 45,000  Level Minneapolis Center
02:49PM 45.3133 -95.9497 94° East 485 558 45,000  Level Minneapolis Center
02:50PM 45.3031 -95.7600 94° East 483 556 45,000  Level Minneapolis Center
02:51PM 45.2908 -95.5322 94° East 481 554 45,000  Level Minneapolis Center
02:52PM 45.2800 -95.3433 95° East 481 554 45,000  Level Minneapolis Center
02:53PM 45.2689 -95.1539 95° East 481 554 45,000  Level Minneapolis Center
02:54PM 45.2578 -94.9667 95° East 478 550 45,000  Level Minneapolis Center
02:55PM 45.2456 -94.7786 95° East 479 551 45,000  Level Minneapolis Center
02:56PM 45.2314 -94.5658 95° East 481 554 45,000  Level Minneapolis Center
02:57PM 45.2183 -94.3800 96° East 476 548 45,000  Level Minneapolis Center
02:58PM 45.2056 -94.1922 95° East 478 550 45,000  Level Minneapolis Center
02:59PM 45.1936 -94.0067 95° East 474 545 45,000  Level Minneapolis Center
03:00PM 45.1794 -93.8206 96° East 474 545 45,000  Level Minneapolis Center
03:01PM 45.1664 -93.6353 96° East 473 544 45,000  Level Minneapolis Center
03:02PM 45.1489 -93.4081 96° East 480 552 45,000  Level Minneapolis Center
03:03PM 45.1336 -93.2203 97° East 478 550 45,000  Level Minneapolis Center
03:04PM 45.1169 -93.0308 97° East 480 552 45,000  Level Minneapolis Center
03:05PM 45.1003 -92.8419 97° East 481 554 45,000  Level Minneapolis Center
03:07PM 45.0831 -92.6575 97° East 475 547 45,000  Level Minneapolis Center
03:08PM 45.0658 -92.4714 97° East 478 550 45,000  Level Minneapolis Center
03:09PM 45.0483 -92.2842 97° East 480 552 45,000  Level Minneapolis Center
03:10PM 45.0239 -92.0583 99° East 484 557 45,000  Level Minneapolis Center
03:11PM 45.0031 -91.8711 99° East 484 557 45,000  Level Minneapolis Center
03:12PM 44.9822 -91.6825 99° East 486 559 45,000  Level Minneapolis Center
03:13PM 44.9631 -91.4953 98° East 484 557 45,000  Level Minneapolis Center
03:14PM 44.9417 -91.3089 99° East 483 556 45,000  Level Minneapolis Center
03:15PM 44.9203 -91.1217 99° East 484 557 45,000  Level Minneapolis Center
03:16PM 44.8911 -90.8978 100° East 484 557 45,000  Level Minneapolis Center
03:17PM 44.8608 -90.7128 103° East 480 552 45,000  Level Minneapolis Center
03:18PM 44.8306 -90.5211 102° East 482 555 45,000  Level Minneapolis Center
03:19PM 44.8006 -90.3383 103° East 481 554 45,000  Level Minneapolis Center
03:20PM 44.7700 -90.1550 103° East 481 554 45,000  Level Minneapolis Center
03:21PM 44.7397 -89.9722 103° East 480 552 45,000  Level Minneapolis Center
03:22PM 44.7089 -89.7903 103° East 479 551 45,000  Level Minneapolis Center
03:23PM 44.6667 -89.5500 104° East 476 548 45,000  Level Minneapolis Center
03:24PM 44.6358 -89.3678 103° East 478 550 45,000  Level Minneapolis Center
03:25PM 44.6036 -89.1864 104° East 478 550 45,000  Level Minneapolis Center
03:26PM 44.5714 -89.0067 104° East 476 548 45,000  Level Minneapolis Center
03:27PM 44.5406 -88.8247 103° East 477 549 45,000  Level Minneapolis Center
03:28PM 44.5025 -88.6139 104° East 477 549 45,000  Level Minneapolis Center
03:30PM 44.4694 -88.4331 104° East 476 548 45,000  Level Minneapolis Center
03:31PM 44.4300 -88.2211 105° East 480 552 45,000  Level Minneapolis Center
03:32PM 44.3967 -88.0417 105° East 477 549 45,000  Level Minneapolis Center
03:33PM 44.3569 -87.8319 105° East 477 549 45,000  Level Minneapolis Center
03:34PM 44.3228 -87.6525 105° East 477 549 45,000  Level Minneapolis Center
03:35PM 44.2886 -87.4725 105° East 478 550 45,000  Level Minneapolis Center
03:36PM 44.2533 -87.2942 105° East 477 549 45,000  Level Minneapolis Center
03:37PM 44.2208 -87.1264 105° East 477 549 45,000  Level Minneapolis Center
03:38PM 44.1789 -86.9142 105° East 477 549 45,000  Level Minneapolis Center
03:39PM 44.1500 -86.7742 106° East 475 547 45,000  Level Minneapolis Center
03:40PM 44.1106 -86.5681 105° East 469 540 45,000  Level Minneapolis Center
03:41PM 44.0753 -86.3964 106° East 464 534 45,000  Level Minneapolis Center
03:42PM 44.0400 -86.2242 106° East 464 534 45,000  Level Minneapolis Center
03:43PM 44.0053 -86.0531 106° East 461 531 45,000  Level Minneapolis Center
03:44PM 43.9625 -85.8483 106° East 459 528 45,000  Level Minneapolis Center
03:45PM 43.9272 -85.6783 106° East 459 528 45,000  Level Minneapolis Center
03:46PM 43.8914 -85.5100 106° East 457 526 45,000  Level Minneapolis Center
03:47PM 43.8558 -85.3422 106° East 454 522 45,000  Level Minneapolis Center
03:48PM 43.8197 -85.1739 107° East 455 524 45,000  Level Minneapolis Center
03:49PM 43.7825 -85.0056 107° East 456 525 45,000  Level Minneapolis Center
03:50PM 43.7467 -84.8361 106° East 458 527 45,000  Level Minneapolis Center
03:51PM 43.7011 -84.6328 107° East 461 531 45,000  Level Minneapolis Center
03:52PM 43.6636 -84.4636 107° East 461 531 45,000  Level Minneapolis Center
03:53PM 43.6258 -84.2939 107° East 462 532 45,000  Level Minneapolis Center
03:55PM 43.5792 -84.0908 108° East 463 533 45,000  Level Minneapolis Center
03:56PM 43.5417 -83.9208 107° East 464 534 45,000  Level Minneapolis Center
03:57PM 43.5025 -83.7508 108° East 465 535 45,000  Level Minneapolis Center
03:57PM 43.4697 -83.6208 109° East 465 535 45,000  Level Cleveland Center
03:59PM 43.4289 -83.4508 108° East 467 537 45,000  Level Cleveland Center
04:00PM 43.3889 -83.2803 108° East 467 537 45,000  Level Cleveland Center
04:00PM 43.3500 -83.1167 108° East 470 541 45,000  Level Toronto Center
04:01PM 43.3000 -82.9500 112° Southeast 470 541 45,000  Level Toronto Center
04:02PM 43.2500 -82.8000 115° Southeast 470 541 45,000  Level Toronto Center
04:03PM 43.2333 -82.6333 98° East 470 541 45,000  Level Toronto Center
04:04PM 43.1833 -82.4667 112° Southeast 470 541 45,000  Level Toronto Center
04:05PM 43.1167 -82.2833 116° Southeast 470 541 45,000  Level Toronto Center
04:06PM 43.0833 -82.1167 105° East 480 552 45,000  Level Toronto Center
04:07PM 43.0167 -81.9333 116° Southeast 480 552 45,000  Level Toronto Center
04:08PM 42.9833 -81.7833 107° East 480 552 45,000  Level Toronto Center
04:09PM 42.9333 -81.6167 112° Southeast 480 552 45,000  Level Toronto Center
04:10PM 42.8833 -81.4500 112° Southeast 480 552 45,000  Level Toronto Center
04:11PM 42.8333 -81.2667 110° East 470 541 45,000  Level Toronto Center
04:12PM 42.7833 -81.1167 114° Southeast 470 541 45,000  Level Toronto Center
04:13PM 42.7333 -80.9500 112° Southeast 460 529 45,000  Level Toronto Center
04:14PM 42.7000 -80.7833 105° East 460 529 45,000  Level Toronto Center
04:15PM 42.6500 -80.6333 114° Southeast 460 529 45,000  Level Toronto Center
04:16PM 42.6000 -80.4667 112° Southeast 450 518 45,000  Level Toronto Center
04:18PM 42.5497 -80.2883 111° Southeast 453 521 45,000  Level Cleveland Center
04:19PM 42.5011 -80.1281 112° Southeast 455 524 45,000  Level Cleveland Center
04:20PM 42.4533 -79.9722 113° Southeast 452 520 45,000  Level Cleveland Center
04:21PM 42.4064 -79.8186 112° Southeast 448 516 45,000  Level Cleveland Center
04:22PM 42.3478 -79.6306 113° Southeast 452 520 45,000  Level Cleveland Center
04:23PM 42.2997 -79.4756 113° Southeast 452 520 45,000  Level Cleveland Center
04:24PM 42.2506 -79.3192 113° Southeast 454 522 45,000  Level Cleveland Center
04:25PM 42.2014 -79.1647 113° Southeast 452 520 45,000  Level Cleveland Center
04:26PM 42.1600 -79.0047 109° East 454 522 45,000  Level Cleveland Center
04:27PM 42.1203 -78.8475 109° East 448 516 45,000  Level Cleveland Center
04:28PM 42.0722 -78.6575 109° East 448 516 45,000  Level Cleveland Center
04:29PM 42.0319 -78.4981 109° East 450 518 45,000  Level Cleveland Center
04:30PM 41.9908 -78.3392 109° East 451 519 45,000 -300 Level Cleveland Center
04:31PM 41.9494 -78.1764 109° East 451 519 44,500 -1,500 Descending Cleveland Center
04:32PM 41.9078 -78.0172 109° East 454 522 42,000 -2,520 Descending Cleveland Center
04:33PM 41.8600 -77.8383 110° East 440 506 39,300 -2,520 Descending Cleveland Center
04:34PM 41.8194 -77.6819 109° East 443 510 36,900 -2,100 Descending Cleveland Center
04:35PM 41.7775 -77.5203 109° East 458 527 35,000 -840 Descending Cleveland Center
04:36PM 41.7153 -77.2903 110° East 452 520 35,000  Level New York Center
04:37PM 41.6700 -77.1247 110° East 472 543 35,000 -1,200 Level New York Center
04:38PM 41.6267 -76.9594 109° East 472 543 32,600 -3,000 Descending New York Center
04:39PM 41.5811 -76.7944 110° East 472 543 29,100 -3,000 Descending New York Center
04:40PM 41.5406 -76.6494 110° East 472 543 26,700 -1,920 Descending New York Center
04:41PM 41.4983 -76.4906 109° East 466 536 25,300 -1,500 Descending New York Center
04:42PM 41.4558 -76.3292 109° East 459 528 23,800 -1,680 Descending New York Center
04:43PM 41.4058 -76.1508 110° East 464 534 22,000 -1,620 Descending New York Center
04:44PM 41.3622 -76.0064 112° Southeast 450 518 20,600 -1,380 Descending New York Center
04:45PM 41.3228 -75.8622 110° East 425 489 19,300 -1,320 Descending New York Center
04:46PM 41.2789 -75.7156 112° Southeast 425 489 18,000 -1,560 Descending New York Center
04:47PM 41.2367 -75.5800 112° Southeast 413 475 16,200 -1,980 Descending New York Center
04:48PM 41.1919 -75.4472 114° Southeast 393 452 14,100 -2,100 Descending New York Center
04:49PM 41.1547 -75.3344 114° Southeast 380 437 12,100 -2,100 Descending New York Center
04:50PM 41.1153 -75.2189 114° Southeast 363 418 10,000 -2,040 Descending New York Center
04:51PM 41.0778 -75.1061 114° Southeast 314 361 8,100 -1,800 Descending New York Center
04:52PM 41.0461 -75.0078 113° Southeast 291 335 6,500 -1,020 Descending New York Center
04:53PM 41.0117 -74.9150 116° Southeast 284 327 6,100 -300 Descending New York Center
04:54PM 40.9967 -74.8125 101° East 284 327 6,000 -780 Descending New York Center
04:55PM 41.0022 -74.7083 86° East 279 321 4,600 -960 Descending New York Center
04:56PM 41.0056 -74.6067 87° East 273 314 4,100 -600 Descending New York Center
04:57PM 41.0083 -74.5189 88° East 273 314 3,500 -600 Descending New York Center
04:58PM 41.0158 -74.4147 85° East 268 308 3,000 -300 Descending New York Center
04:59PM 41.0167 -74.3500 89° East 282 325 3,100 -120 Climbing New York TRACON
05:00PM 41.0167 -74.2500 90° East 271 312 2,900 -480 Descending New York TRACON
05:01PM 41.0333 -74.1500 78° East 245 282 2,100 -420 Descending New York TRACON
05:02PM 41.0167 -74.0667 105° East 233 268 2,100  Level New York TRACON
05:03PM 40.9667 -74.0500 166° South 197 227 2,100 -420 Level New York TRACON
05:04PM 40.9167 -74.0500 180° South 180 207 1,300 -780 Descending New York TRACON
05:05PM 40.8833 -74.0500 180° South 127 146 600 -720 Descending New York TRACON
05:08PM 40.8500 -74.0500 143° Southeast  Level FlightAware Approximate
05:15PM 40.8501 -74.0608 143° Southeast  Level Estimated